Beiseker, Canada
Current Conditions -  °F | °C
As of 9:00 PM on Thursday 18 Dec 2014 (Local Time) from CYYC Reporting Station
Clear Clear  
Wind Chill: -1°   Ceiling: Unl
Heat Index:   Visibility: 15mi
Dew Point: -6°   Wind: 5mph
Humidity: 60%   Direction: 240°WSW
Pressure: 29.77"   Gusts: NA
Location:  51.38°N, 113.53°W
Report Text: CYYC 190400Z 24004KT 15SM SKC 01/M06 A2977 RMK SLP131
Loading
Personal Weather Stations






























Interactive Weather Map New forecast layout! Learn more

10-Day Weather Forecast

Advertisements
Track Severe Weather on mobile